Accueil
METAR-TAF:

METAR-TAF

Aéroports :

Centralia Municipal Airport

Centralia, Illinois, États-Unis

latitude: 38-30-53N, longitude: 089-05-32W, altitude: 163 m

Observation

Le bulletin a été fait il y a 24 minutes, à 22:35 UTC
Vent 7 kt de est/sud-est
Température 11°C
Humidité 62%
Pression 1020 hPa
Visibilité: 16.1 km
Ciel clair

METAR: KENL 202235Z AUTO 12007KT 10SM CLR 11/04 A3013 RMK AO2 T01050037

Heure: 16:59 (22:59 UTC)


TAF: absent

Observations et prévisions météorologiques de plus de 4000 aéroports (messages METAR et TAF).

Les stations disponibles sont représentées par des disques jaunes et rouges sur la carte.

Passer la souris dessus pour voir le nom de la station.

Cliquer dessus pour voir les observations et prévisions météorologiques.

Pour changer de carte: cliquez sur les boutons verts avec une croix noire pour zoomer, sur le bouton vert avec un tiret pour effectuer un zoom arrière, ou sur les flèches vertes pour les cartes adjacentes.


METAR-TAF: